createdAt,value
2023-02-21T00:00:52.767Z,3.00
2023-02-21T00:03:42.279Z,2.40
2023-02-21T00:06:28.313Z,1.90
2023-02-21T00:09:13.997Z,2.65
2023-02-21T00:12:03.255Z,1.80
2023-02-21T00:14:48.885Z,1.85
2023-02-21T00:17:34.200Z,2.03
2023-02-21T00:20:19.987Z,2.40
2023-02-21T00:23:05.296Z,2.17
2023-02-21T00:25:50.949Z,1.85
2023-02-21T00:28:36.333Z,1.77
2023-02-21T00:31:22.072Z,1.65
2023-02-21T00:34:07.734Z,1.73
2023-02-21T00:36:53.510Z,1.70
2023-02-21T00:39:38.953Z,2.10
2023-02-21T00:45:09.857Z,1.80
2023-02-21T00:47:55.250Z,1.67
2023-02-21T00:50:40.640Z,2.78
2023-02-21T00:53:26.338Z,2.17
2023-02-21T00:56:11.679Z,1.45
2023-02-21T00:58:57.111Z,1.45
2023-02-21T01:01:42.644Z,1.60
2023-02-21T01:04:28.286Z,2.15
2023-02-21T01:07:13.666Z,1.70
2023-02-21T01:09:59.338Z,1.63
2023-02-21T01:12:44.789Z,1.20
2023-02-21T01:18:15.974Z,1.73
2023-02-21T01:21:01.779Z,1.90
2023-02-21T01:23:47.104Z,1.55
2023-02-21T01:26:32.561Z,1.63
2023-02-21T01:29:17.727Z,1.98
2023-02-21T01:32:03.385Z,1.50
2023-02-21T01:34:48.674Z,1.67
2023-02-21T01:37:33.993Z,1.90
2023-02-21T01:40:19.399Z,1.77
2023-02-21T01:46:04.775Z,2.05
2023-02-21T01:48:51.092Z,1.95
2023-02-21T01:51:39.421Z,1.85
2023-02-21T01:54:25.175Z,1.60
2023-02-21T01:57:11.223Z,1.63
2023-02-21T01:59:56.851Z,2.13
2023-02-21T02:02:56.077Z,1.88
2023-02-21T02:05:41.685Z,1.20
2023-02-21T02:08:27.135Z,2.08
2023-02-21T02:13:57.821Z,1.88
2023-02-21T02:16:30.731Z,1.40
2023-02-21T02:19:30.149Z,1.58
2023-02-21T02:22:15.451Z,1.83
2023-02-21T02:24:58.289Z,1.85
2023-02-21T02:27:59.575Z,1.55
2023-02-21T02:30:26.417Z,1.48
2023-02-21T02:33:21.310Z,1.73
2023-02-21T02:35:49.595Z,1.40
2023-02-21T02:38:30.675Z,1.75
2023-02-21T02:41:24.694Z,1.38
2023-02-21T02:43:52.755Z,1.50
2023-02-21T02:46:24.964Z,1.85
2023-02-21T02:49:02.888Z,1.63
2023-02-21T02:51:29.662Z,1.92
2023-02-21T02:53:56.791Z,1.73
2023-02-21T02:56:23.793Z,1.40
2023-02-21T02:58:53.916Z,1.63
2023-02-21T03:01:42.438Z,1.70
2023-02-21T03:04:23.066Z,1.50
2023-02-21T03:07:17.728Z,2.10
2023-02-21T03:10:09.163Z,2.47
2023-02-21T03:12:48.189Z,1.92
2023-02-21T03:15:19.179Z,1.38
2023-02-21T03:17:53.367Z,1.40
2023-02-21T03:20:20.444Z,1.73
2023-02-21T03:22:47.478Z,1.80
2023-02-21T03:25:14.628Z,1.27
2023-02-21T03:27:41.399Z,1.40
2023-02-21T03:30:09.176Z,1.50
2023-02-21T03:32:38.574Z,1.48
2023-02-21T03:35:06.235Z,1.63
2023-02-21T03:37:36.732Z,1.60
2023-02-21T03:40:30.767Z,1.55
2023-02-21T03:42:58.293Z,1.60
2023-02-21T03:45:25.345Z,1.73
2023-02-21T03:47:52.113Z,1.45
2023-02-21T03:50:19.211Z,1.50
2023-02-21T03:52:45.929Z,1.35
2023-02-21T03:55:13.014Z,1.48
2023-02-21T03:57:39.875Z,2.00
2023-02-21T04:00:07.770Z,1.77
2023-02-21T04:02:34.488Z,1.60
2023-02-21T04:05:02.173Z,1.90
2023-02-21T04:07:28.996Z,1.80
2023-02-21T04:09:56.131Z,1.95
2023-02-21T04:12:22.885Z,1.70
2023-02-21T04:14:49.986Z,2.03
2023-02-21T04:17:17.259Z,1.70
2023-02-21T04:19:44.393Z,2.03
2023-02-21T04:22:11.145Z,1.90
2023-02-21T04:24:38.281Z,1.80
2023-02-21T04:27:05.029Z,1.75
2023-02-21T04:29:32.149Z,2.30
2023-02-21T04:31:59.010Z,2.30
2023-02-21T04:34:26.172Z,2.10
2023-02-21T04:36:52.897Z,1.58
2023-02-21T04:39:20.038Z,1.80
2023-02-21T04:41:46.775Z,1.85
2023-02-21T04:44:13.904Z,2.63
2023-02-21T04:46:40.674Z,1.40
2023-02-21T04:49:07.834Z,1.88
2023-02-21T04:51:34.615Z,1.70
2023-02-21T04:54:01.857Z,1.80
2023-02-21T04:56:29.373Z,1.65
2023-02-21T04:58:56.649Z,1.65
2023-02-21T05:01:23.533Z,1.80
2023-02-21T05:03:50.614Z,1.60
2023-02-21T05:06:21.633Z,1.52
2023-02-21T05:08:48.832Z,2.47
2023-02-21T05:11:16.208Z,1.50
2023-02-21T05:13:43.665Z,1.70
2023-02-21T05:16:10.621Z,1.73
2023-02-21T05:18:38.656Z,2.20
2023-02-21T05:21:08.328Z,1.92
2023-02-21T05:23:35.934Z,2.50
2023-02-21T05:26:04.741Z,2.30
2023-02-21T05:28:31.866Z,2.40
2023-02-21T05:31:00.835Z,1.75
2023-02-21T05:33:28.276Z,2.38
2023-02-21T05:35:55.132Z,2.20
2023-02-21T05:38:22.837Z,2.28
2023-02-21T05:40:49.666Z,2.47
2023-02-21T05:43:16.773Z,2.83
2023-02-21T05:45:43.594Z,2.90
2023-02-21T05:48:10.654Z,3.33
2023-02-21T05:50:39.636Z,3.00
2023-02-21T05:53:07.049Z,3.10
2023-02-21T05:55:33.892Z,3.50
2023-02-21T05:58:00.964Z,3.90
2023-02-21T06:00:28.919Z,5.18
2023-02-21T06:02:56.379Z,4.18
2023-02-21T06:05:23.277Z,4.35
2023-02-21T06:07:50.988Z,4.10
2023-02-21T06:10:17.985Z,4.03
2023-02-21T06:12:45.262Z,4.20
2023-02-21T06:15:13.216Z,4.38
2023-02-21T06:17:41.041Z,4.10
2023-02-21T06:20:08.861Z,4.20
2023-02-21T06:22:35.876Z,4.32
2023-02-21T06:25:02.639Z,4.10
2023-02-21T06:27:30.281Z,4.53
2023-02-21T06:29:57.116Z,4.00
2023-02-21T06:32:24.236Z,4.22
2023-02-21T06:34:51.049Z,3.75
2023-02-21T06:37:19.126Z,4.18
2023-02-21T06:39:46.214Z,3.92
2023-02-21T06:42:16.787Z,3.38
2023-02-21T06:44:46.998Z,3.88
2023-02-21T06:47:14.102Z,3.03
2023-02-21T06:49:40.854Z,3.90
2023-02-21T06:52:08.018Z,4.38
2023-02-21T06:54:34.793Z,4.20
2023-02-21T06:57:01.938Z,3.25
2023-02-21T06:59:29.254Z,3.42
2023-02-21T07:01:56.619Z,3.78
2023-02-21T07:04:23.647Z,3.63
2023-02-21T07:06:50.806Z,4.30
2023-02-21T07:09:17.791Z,3.72
2023-02-21T07:11:46.913Z,3.78
2023-02-21T07:14:13.878Z,4.20
2023-02-21T07:16:40.975Z,3.75
2023-02-21T07:19:07.875Z,4.10
2023-02-21T07:21:34.959Z,3.70
2023-02-21T07:24:01.754Z,3.72
2023-02-21T07:26:28.986Z,3.47
2023-02-21T07:28:55.849Z,3.88
2023-02-21T07:31:23.419Z,4.30
2023-02-21T07:33:50.277Z,3.90
2023-02-21T07:36:17.467Z,4.45
2023-02-21T07:38:44.282Z,4.63
2023-02-21T07:41:11.534Z,5.07
2023-02-21T07:43:39.316Z,4.60
2023-02-21T07:46:11.327Z,4.90
2023-02-21T07:48:38.268Z,5.55
2023-02-21T07:51:07.161Z,5.22
2023-02-21T07:53:34.366Z,5.60
2023-02-21T07:56:01.743Z,5.47
2023-02-21T07:58:28.536Z,5.57
2023-02-21T08:00:55.737Z,5.43
2023-02-21T08:03:23.157Z,6.10
2023-02-21T08:05:50.348Z,6.25
2023-02-21T08:08:17.327Z,6.63
2023-02-21T08:10:44.494Z,8.15
2023-02-21T08:13:11.305Z,10.20
2023-02-21T08:15:38.407Z,10.23
2023-02-21T08:18:05.257Z,10.48
2023-02-21T08:20:32.406Z,10.05
2023-02-21T08:22:59.217Z,9.05
2023-02-21T08:25:26.295Z,10.00
2023-02-21T08:27:55.275Z,9.38
2023-02-21T08:30:25.314Z,9.88
2023-02-21T08:32:52.271Z,7.43
2023-02-21T08:35:19.845Z,8.23
2023-02-21T08:37:49.990Z,7.07
2023-02-21T08:40:19.708Z,6.30
2023-02-21T08:42:52.282Z,6.35
2023-02-21T08:45:20.571Z,5.47
2023-02-21T08:47:47.372Z,5.03
2023-02-21T08:50:14.674Z,4.13
2023-02-21T08:52:41.438Z,3.70
2023-02-21T08:55:08.707Z,3.05
2023-02-21T08:57:35.496Z,3.00
2023-02-21T09:00:03.373Z,2.72
2023-02-21T09:02:30.838Z,2.10
2023-02-21T09:04:57.991Z,2.13
2023-02-21T09:07:24.910Z,2.25
2023-02-21T09:09:51.954Z,1.73
2023-02-21T09:12:18.854Z,1.73
2023-02-21T09:14:46.027Z,1.63
2023-02-21T09:17:13.635Z,2.08
2023-02-21T09:19:40.999Z,1.95
2023-02-21T09:22:08.756Z,2.08
2023-02-21T09:24:35.855Z,1.65
2023-02-21T09:27:05.497Z,1.60
2023-02-21T09:29:44.899Z,1.70
2023-02-21T09:32:12.025Z,1.73
2023-02-21T09:34:39.869Z,1.38
2023-02-21T09:37:06.788Z,1.90
2023-02-21T09:39:33.922Z,1.65
2023-02-21T09:42:00.705Z,1.48
2023-02-21T09:44:28.029Z,1.73
2023-02-21T09:46:58.812Z,1.30
2023-02-21T09:49:28.864Z,1.60
2023-02-21T09:51:55.869Z,1.38
2023-02-21T09:54:42.419Z,1.40
2023-02-21T09:57:14.546Z,1.83
2023-02-21T09:59:41.728Z,2.20
2023-02-21T10:02:14.684Z,2.00
2023-02-21T10:05:07.755Z,1.80
2023-02-21T10:07:46.161Z,2.03
2023-02-21T10:10:30.770Z,1.90
2023-02-21T10:13:24.452Z,2.00
2023-02-21T10:15:55.686Z,1.70
2023-02-21T10:18:45.174Z,2.13
2023-02-21T10:21:17.848Z,2.60
2023-02-21T10:23:46.884Z,2.25
2023-02-21T10:26:35.308Z,2.53
2023-02-21T10:29:02.613Z,2.20
2023-02-21T10:31:36.606Z,2.15
2023-02-21T10:34:04.379Z,2.15
2023-02-21T10:36:31.456Z,2.42
2023-02-21T10:39:07.508Z,2.40
2023-02-21T10:41:35.405Z,2.20
2023-02-21T10:44:06.658Z,2.58
2023-02-21T10:46:43.411Z,2.97
2023-02-21T10:49:29.181Z,2.72
2023-02-21T10:52:10.688Z,2.33
2023-02-21T10:54:37.670Z,2.67
2023-02-21T10:57:07.237Z,2.20
2023-02-21T10:59:35.722Z,1.77
2023-02-21T11:02:04.175Z,2.08
2023-02-21T11:04:38.620Z,2.63
2023-02-21T11:07:09.902Z,2.15
2023-02-21T11:09:40.679Z,1.92
2023-02-21T11:12:19.836Z,2.83
2023-02-21T11:14:52.627Z,1.92
2023-02-21T11:17:43.475Z,2.28
2023-02-21T11:20:24.604Z,2.80
2023-02-21T11:22:52.722Z,2.60
2023-02-21T11:25:29.623Z,2.63
2023-02-21T11:28:21.699Z,3.30
2023-02-21T11:31:16.008Z,4.38
2023-02-21T11:33:58.436Z,4.15
2023-02-21T11:36:41.283Z,4.40
2023-02-21T11:39:19.164Z,3.60
2023-02-21T11:41:59.378Z,3.53
2023-02-21T11:44:27.685Z,2.95
2023-02-21T11:47:05.065Z,2.50
2023-02-21T11:49:33.016Z,2.85
2023-02-21T11:52:06.634Z,3.85
2023-02-21T11:54:33.803Z,3.00
2023-02-21T11:57:25.596Z,2.47
2023-02-21T11:59:57.019Z,2.88
2023-02-21T12:02:33.235Z,2.58
2023-02-21T12:05:19.068Z,3.08
2023-02-21T12:07:52.452Z,2.90
2023-02-21T12:10:32.479Z,2.90
2023-02-21T12:13:11.197Z,2.65
2023-02-21T12:15:57.207Z,2.97
2023-02-21T12:21:09.221Z,2.35
2023-02-21T12:23:41.217Z,2.33
2023-02-21T12:26:39.359Z,2.65
2023-02-21T12:29:25.910Z,2.42
2023-02-21T12:32:28.504Z,2.00
2023-02-21T12:35:34.024Z,1.90
2023-02-21T12:38:32.591Z,2.78
2023-02-21T12:41:27.708Z,2.40
2023-02-21T12:44:16.149Z,2.45
2023-02-21T12:47:02.733Z,2.30
2023-02-21T12:49:40.640Z,2.28
2023-02-21T12:52:22.720Z,2.45
2023-02-21T12:54:59.193Z,2.22
2023-02-21T12:57:31.324Z,2.42
2023-02-21T13:00:07.983Z,2.55
2023-02-21T13:02:53.335Z,2.63
2023-02-21T13:05:34.091Z,3.20
2023-02-21T13:08:03.853Z,3.28
2023-02-21T13:11:00.332Z,3.75
2023-02-21T13:15:57.735Z,3.97
2023-02-21T13:18:30.401Z,3.35
2023-02-21T13:21:18.278Z,4.03
2023-02-21T13:23:53.710Z,4.00
2023-02-21T13:26:23.939Z,3.80
2023-02-21T13:28:54.333Z,3.15
2023-02-21T13:31:37.170Z,3.45
2023-02-21T13:34:06.793Z,4.13
2023-02-21T13:36:44.294Z,3.88
2023-02-21T13:39:22.284Z,3.45
2023-02-21T13:41:55.890Z,3.55
2023-02-21T13:44:32.357Z,3.47
2023-02-21T13:47:07.157Z,3.30
2023-02-21T13:49:48.323Z,3.65
2023-02-21T13:52:19.663Z,3.53
2023-02-21T13:55:11.604Z,4.45
2023-02-21T13:57:49.274Z,4.05
2023-02-21T14:00:25.130Z,4.00
2023-02-21T14:03:01.522Z,3.88
2023-02-21T14:05:43.486Z,3.95
2023-02-21T14:08:42.824Z,4.63
2023-02-21T14:11:15.665Z,4.40
2023-02-21T14:13:42.751Z,3.90
2023-02-21T14:16:10.679Z,3.72
2023-02-21T14:19:00.683Z,3.88
2023-02-21T14:21:35.386Z,3.72
2023-02-21T14:24:14.552Z,4.32
2023-02-21T14:26:45.722Z,4.32
2023-02-21T14:29:29.062Z,4.47
2023-02-21T14:32:02.838Z,4.03
2023-02-21T14:34:48.448Z,3.88
2023-02-21T14:37:27.777Z,4.28
2023-02-21T14:40:10.995Z,4.45
2023-02-21T14:42:53.206Z,4.63
2023-02-21T14:45:28.152Z,4.68
2023-02-21T14:48:32.574Z,4.55
2023-02-21T14:51:36.938Z,4.22
2023-02-21T14:54:14.311Z,3.65
2023-02-21T14:56:48.263Z,3.78
2023-02-21T14:59:45.557Z,3.63
2023-02-21T15:02:38.412Z,3.63
2023-02-21T15:05:12.631Z,3.65
2023-02-21T15:07:43.762Z,3.33
2023-02-21T15:10:21.562Z,3.72
2023-02-21T15:12:56.009Z,4.20
2023-02-21T15:15:34.632Z,3.58
2023-02-21T15:18:12.741Z,4.20
2023-02-21T15:20:41.599Z,4.22
2023-02-21T15:23:16.380Z,4.30
2023-02-21T15:25:43.998Z,4.50
2023-02-21T15:28:28.328Z,4.28
2023-02-21T15:30:56.308Z,4.38
2023-02-21T15:33:26.464Z,4.53
2023-02-21T15:36:14.349Z,3.75
2023-02-21T15:38:46.895Z,3.85
2023-02-21T15:41:17.054Z,5.05
2023-02-21T15:43:46.555Z,4.30
2023-02-21T15:46:18.152Z,5.38
2023-02-21T15:48:45.523Z,4.53
2023-02-21T15:51:13.305Z,4.68
2023-02-21T15:53:40.609Z,5.20
2023-02-21T15:56:19.731Z,4.72
2023-02-21T15:59:25.767Z,4.60
2023-02-21T16:02:11.272Z,4.25
2023-02-21T16:04:39.730Z,4.88
2023-02-21T16:07:07.706Z,5.00
2023-02-21T16:09:35.847Z,5.38
2023-02-21T16:12:02.606Z,5.72
2023-02-21T16:15:09.018Z,5.95
2023-02-21T16:17:37.325Z,5.95
2023-02-21T16:20:14.886Z,6.18
2023-02-21T16:23:06.203Z,7.15
2023-02-21T16:25:33.473Z,7.53
2023-02-21T16:28:00.409Z,8.23
2023-02-21T16:30:29.235Z,9.55
2023-02-21T16:33:00.711Z,9.00
2023-02-21T16:35:29.015Z,9.00
2023-02-21T16:37:57.774Z,9.27
2023-02-21T16:40:29.548Z,9.45
2023-02-21T16:42:56.616Z,9.15
2023-02-21T16:45:23.921Z,10.40
2023-02-21T16:47:55.820Z,9.35
2023-02-21T16:50:28.144Z,9.48
2023-02-21T16:52:55.140Z,9.68
2023-02-21T16:55:22.444Z,9.35
2023-02-21T16:57:50.250Z,10.68
2023-02-21T17:00:22.493Z,8.73
2023-02-21T17:02:49.815Z,8.98
2023-02-21T17:05:17.458Z,10.25
2023-02-21T17:07:44.333Z,9.65
2023-02-21T17:10:11.557Z,9.93
2023-02-21T17:12:38.422Z,10.75
2023-02-21T17:15:08.368Z,10.15
2023-02-21T17:17:35.129Z,9.40
2023-02-21T17:20:02.416Z,9.50
2023-02-21T17:22:29.193Z,9.15
2023-02-21T17:24:56.308Z,9.05
2023-02-21T17:27:23.297Z,8.77
2023-02-21T17:29:50.442Z,10.20
2023-02-21T17:32:17.274Z,9.63
2023-02-21T17:34:44.376Z,10.38
2023-02-21T17:37:11.176Z,9.63
2023-02-21T17:39:38.303Z,11.57
2023-02-21T17:42:05.149Z,9.57
2023-02-21T17:44:33.521Z,10.82
2023-02-21T17:47:00.424Z,10.45
2023-02-21T17:49:28.153Z,10.65
2023-02-21T17:51:54.886Z,10.32
2023-02-21T17:54:23.907Z,11.57
2023-02-21T17:56:50.758Z,11.20
2023-02-21T17:59:18.099Z,11.20
2023-02-21T18:01:45.269Z,10.70
2023-02-21T18:04:13.732Z,12.02
2023-02-21T18:06:41.080Z,12.38
2023-02-21T18:09:08.189Z,12.38
2023-02-21T18:11:37.981Z,11.95
2023-02-21T18:14:05.264Z,14.25
2023-02-21T18:16:32.535Z,13.15
2023-02-21T18:18:59.605Z,13.75
2023-02-21T18:21:27.514Z,14.07
2023-02-21T18:23:54.642Z,14.10
2023-02-21T18:26:21.411Z,13.63
2023-02-21T18:28:48.803Z,12.35
2023-02-21T18:31:19.813Z,12.55
2023-02-21T18:33:48.067Z,13.18
2023-02-21T18:36:14.834Z,12.90
2023-02-21T18:38:41.961Z,12.60
2023-02-21T18:41:12.941Z,11.77
2023-02-21T18:43:40.846Z,11.48
2023-02-21T18:46:11.805Z,11.32
2023-02-21T18:48:43.473Z,11.32
2023-02-21T18:51:10.799Z,12.20
2023-02-21T18:53:37.959Z,10.82
2023-02-21T18:56:08.333Z,11.50
2023-02-21T18:58:35.561Z,12.30
2023-02-21T19:01:02.471Z,12.02
2023-02-21T19:03:29.647Z,11.25
2023-02-21T19:05:56.597Z,12.90
2023-02-21T19:08:23.858Z,12.80
2023-02-21T19:10:52.546Z,13.98
2023-02-21T19:13:19.745Z,13.45
2023-02-21T19:15:46.549Z,12.07
2023-02-21T19:18:13.664Z,14.13
2023-02-21T19:20:40.594Z,14.25
2023-02-21T19:23:07.763Z,13.15
2023-02-21T19:25:34.596Z,13.45
2023-02-21T19:28:01.736Z,14.05
2023-02-21T19:30:34.353Z,14.98
2023-02-21T19:33:01.781Z,14.27
2023-02-21T19:35:29.400Z,13.60
2023-02-21T19:37:56.755Z,13.02
2023-02-21T19:40:23.994Z,13.80
2023-02-21T19:42:51.079Z,12.38
2023-02-21T19:45:18.712Z,12.35
2023-02-21T19:47:45.854Z,12.75
2023-02-21T19:50:12.904Z,11.93
2023-02-21T19:52:40.037Z,11.30
2023-02-21T19:55:07.293Z,11.63
2023-02-21T19:57:34.369Z,10.75
2023-02-21T20:00:01.134Z,10.70
2023-02-21T20:02:28.208Z,9.25
2023-02-21T20:04:55.023Z,10.15
2023-02-21T20:07:22.150Z,9.45
2023-02-21T20:09:48.997Z,8.75
2023-02-21T20:12:18.071Z,9.80
2023-02-21T20:14:48.146Z,9.38
2023-02-21T20:17:15.239Z,8.75
2023-02-21T20:19:42.346Z,8.48
2023-02-21T20:22:09.186Z,9.05
2023-02-21T20:24:36.363Z,10.25
2023-02-21T20:27:03.302Z,8.43
2023-02-21T20:29:30.455Z,7.60
2023-02-21T20:31:58.782Z,8.15
2023-02-21T20:34:25.910Z,7.55
2023-02-21T20:36:54.478Z,7.18
2023-02-21T20:39:28.464Z,7.45
2023-02-21T20:41:55.923Z,7.22
2023-02-21T20:44:23.069Z,7.10
2023-02-21T20:46:49.959Z,6.50
2023-02-21T20:49:17.242Z,7.75
2023-02-21T20:51:44.297Z,7.03
2023-02-21T20:54:20.163Z,7.22
2023-02-21T20:56:47.216Z,7.30
2023-02-21T20:59:20.705Z,6.43
2023-02-21T21:01:50.533Z,6.93
2023-02-21T21:04:19.125Z,6.30
2023-02-21T21:06:46.301Z,6.13
2023-02-21T21:09:17.862Z,6.57
2023-02-21T21:11:45.381Z,6.65
2023-02-21T21:14:16.298Z,6.00
2023-02-21T21:16:43.423Z,6.75
2023-02-21T21:19:11.559Z,5.80
2023-02-21T21:21:38.513Z,5.95
2023-02-21T21:24:07.208Z,6.30
2023-02-21T21:26:34.110Z,6.30
2023-02-21T21:29:02.000Z,6.05
2023-02-21T21:31:28.756Z,6.35
2023-02-21T21:33:56.466Z,5.47
2023-02-21T21:36:23.320Z,5.78
2023-02-21T21:38:50.452Z,6.00
2023-02-21T21:41:17.481Z,6.00
2023-02-21T21:43:45.362Z,6.50
2023-02-21T21:46:12.973Z,5.68
2023-02-21T21:48:43.760Z,6.75
2023-02-21T21:51:10.956Z,6.22
2023-02-21T21:53:41.568Z,6.60
2023-02-21T21:56:08.439Z,6.32
2023-02-21T21:58:35.602Z,6.45
2023-02-21T22:01:05.361Z,5.78
2023-02-21T22:03:32.750Z,6.85
2023-02-21T22:06:00.684Z,6.18
2023-02-21T22:08:28.340Z,7.18
2023-02-21T22:10:55.126Z,6.72
2023-02-21T22:13:22.330Z,6.38
2023-02-21T22:15:49.956Z,7.97
2023-02-21T22:18:18.196Z,6.78
2023-02-21T22:20:49.443Z,7.10
2023-02-21T22:23:18.066Z,7.00
2023-02-21T22:25:44.891Z,7.10
2023-02-21T22:28:13.261Z,7.28
2023-02-21T22:30:40.221Z,8.40
2023-02-21T22:33:08.586Z,8.85
2023-02-21T22:35:35.366Z,9.15
2023-02-21T22:38:02.547Z,9.57
2023-02-21T22:40:29.976Z,10.27
2023-02-21T22:42:59.441Z,9.70
2023-02-21T22:45:26.843Z,10.13
2023-02-21T22:47:55.760Z,11.50
2023-02-21T22:50:23.223Z,11.52
2023-02-21T22:52:51.159Z,10.35
2023-02-21T22:55:17.968Z,12.05
2023-02-21T22:57:45.255Z,11.43
2023-02-21T23:00:21.713Z,11.52
2023-02-21T23:02:49.766Z,13.43
2023-02-21T23:05:20.526Z,11.80
2023-02-21T23:07:49.072Z,13.55
2023-02-21T23:10:17.718Z,12.75
2023-02-21T23:12:47.258Z,14.10
2023-02-21T23:15:15.895Z,12.15
2023-02-21T23:17:43.420Z,13.73
2023-02-21T23:20:15.958Z,12.35
2023-02-21T23:22:46.579Z,13.73
2023-02-21T23:25:20.484Z,12.95
2023-02-21T23:27:57.481Z,13.15
2023-02-21T23:30:33.153Z,12.57
2023-02-21T23:33:00.351Z,14.20
2023-02-21T23:35:27.875Z,13.43
2023-02-21T23:37:54.948Z,12.90
2023-02-21T23:40:23.244Z,12.93
2023-02-21T23:42:54.584Z,13.32
2023-02-21T23:45:26.337Z,13.00
2023-02-21T23:47:55.061Z,13.80
2023-02-21T23:50:24.639Z,12.48
2023-02-21T23:52:52.835Z,14.00
2023-02-21T23:55:24.989Z,13.82
2023-02-21T23:57:52.902Z,12.77
